createdAt,value
2022-11-12T00:00:55.033Z,8.88
2022-11-12T00:03:27.388Z,8.86
2022-11-12T00:05:59.632Z,8.85
2022-11-12T00:08:31.587Z,8.79
2022-11-12T00:11:05.110Z,8.78
2022-11-12T00:13:37.979Z,8.74
2022-11-12T00:16:10.183Z,8.72
2022-11-12T00:18:42.141Z,8.71
2022-11-12T00:21:14.167Z,8.67
2022-11-12T00:23:46.127Z,8.65
2022-11-12T00:26:18.169Z,8.63
2022-11-12T00:28:50.142Z,8.58
2022-11-12T00:31:22.115Z,8.57
2022-11-12T00:33:55.152Z,8.54
2022-11-12T00:36:27.162Z,8.55
2022-11-12T00:38:59.185Z,8.58
2022-11-12T00:41:31.166Z,8.57
2022-11-12T00:44:03.329Z,8.53
2022-11-12T00:46:35.381Z,8.51
2022-11-12T00:49:08.104Z,8.50
2022-11-12T00:51:41.227Z,8.49
2022-11-12T00:54:13.220Z,8.48
2022-11-12T00:56:48.052Z,8.44
2022-11-12T00:59:20.040Z,8.36
2022-11-12T01:01:52.390Z,8.36
2022-11-12T01:04:24.458Z,8.29
2022-11-12T01:06:56.560Z,8.28
2022-11-12T01:09:28.702Z,8.25
2022-11-12T01:12:00.745Z,8.22
2022-11-12T01:14:32.804Z,8.21
2022-11-12T01:17:04.850Z,8.18
2022-11-12T01:19:36.987Z,8.16
2022-11-12T01:22:09.045Z,8.13
2022-11-12T01:24:41.238Z,8.11
2022-11-12T01:27:15.563Z,8.10
2022-11-12T01:29:47.604Z,8.10
2022-11-12T01:32:19.660Z,8.11
2022-11-12T01:34:52.156Z,8.08
2022-11-12T01:37:24.260Z,8.09
2022-11-12T01:39:56.326Z,8.11
2022-11-12T01:42:33.151Z,8.14
2022-11-12T01:45:16.352Z,8.12
2022-11-12T01:47:51.352Z,8.12
2022-11-12T01:50:32.669Z,8.11
2022-11-12T01:53:10.468Z,8.11
2022-11-12T01:55:42.501Z,8.10
2022-11-12T01:58:18.623Z,8.09
2022-11-12T02:00:51.317Z,8.08
2022-11-12T02:03:25.433Z,8.08
2022-11-12T02:06:03.694Z,8.08
2022-11-12T02:08:36.254Z,8.04
2022-11-12T02:11:17.969Z,7.99
2022-11-12T02:13:59.024Z,7.99
2022-11-12T02:16:39.431Z,7.96
2022-11-12T02:19:14.421Z,7.90
2022-11-12T02:21:46.807Z,7.82
2022-11-12T02:24:18.627Z,7.78
2022-11-12T02:26:55.345Z,7.76
2022-11-12T02:29:27.340Z,7.76
2022-11-12T02:31:59.296Z,7.73
2022-11-12T02:34:31.242Z,7.77
2022-11-12T02:37:03.162Z,7.77
2022-11-12T02:39:35.347Z,7.76
2022-11-12T02:42:07.353Z,7.75
2022-11-12T02:44:39.530Z,7.74
2022-11-12T02:47:11.481Z,7.74
2022-11-12T02:49:44.756Z,7.76
2022-11-12T02:52:16.719Z,7.77
2022-11-12T02:54:48.652Z,7.77
2022-11-12T02:57:20.730Z,7.75
2022-11-12T02:59:53.109Z,7.75
2022-11-12T03:02:25.077Z,7.74
2022-11-12T03:04:57.063Z,7.72
2022-11-12T03:07:29.415Z,7.69
2022-11-12T03:10:01.420Z,7.68
2022-11-12T03:12:34.059Z,7.67
2022-11-12T03:15:06.709Z,7.66
2022-11-12T03:17:38.673Z,7.67
2022-11-12T03:20:11.958Z,7.57
2022-11-12T03:22:58.509Z,7.56
2022-11-12T03:25:30.782Z,7.54
2022-11-12T03:28:09.094Z,7.58
2022-11-12T03:30:43.420Z,7.58
2022-11-12T03:33:17.214Z,7.58
2022-11-12T03:35:49.166Z,7.56
2022-11-12T03:38:21.129Z,7.55
2022-11-12T03:40:53.089Z,7.52
2022-11-12T03:43:25.036Z,7.52
2022-11-12T03:45:57.085Z,7.49
2022-11-12T03:48:29.356Z,7.47
2022-11-12T03:51:01.495Z,7.45
2022-11-12T03:53:33.452Z,7.42
2022-11-12T03:56:05.676Z,7.38
2022-11-12T03:58:37.651Z,7.34
2022-11-12T04:01:09.636Z,7.31
2022-11-12T04:03:41.645Z,7.30
2022-11-12T04:06:31.951Z,7.26
2022-11-12T04:09:03.892Z,7.21
2022-11-12T04:11:35.894Z,7.09
2022-11-12T04:14:07.954Z,7.10
2022-11-12T04:16:58.210Z,7.12
2022-11-12T04:19:48.843Z,7.10
2022-11-12T04:22:20.793Z,7.06
2022-11-12T04:25:21.710Z,7.08
2022-11-12T04:27:53.664Z,7.06
2022-11-12T04:30:25.597Z,7.06
2022-11-12T04:32:58.562Z,7.05
2022-11-12T04:35:30.524Z,7.05
2022-11-12T04:38:02.518Z,7.06
2022-11-12T04:40:53.266Z,7.07
2022-11-12T04:43:43.917Z,7.06
2022-11-12T04:46:15.895Z,7.07
2022-11-12T04:48:47.868Z,7.03
2022-11-12T04:51:38.157Z,6.98
2022-11-12T04:54:10.128Z,6.96
2022-11-12T04:56:42.081Z,6.97
2022-11-12T04:59:14.003Z,7.02
2022-11-12T05:01:45.947Z,7.00
2022-11-12T05:04:18.111Z,6.95
2022-11-12T05:06:52.681Z,6.92
2022-11-12T05:09:29.273Z,6.93
2022-11-12T05:12:01.510Z,6.86
2022-11-12T05:14:33.460Z,6.81
2022-11-12T05:17:06.171Z,6.83
2022-11-12T05:19:38.670Z,6.87
2022-11-12T05:22:33.339Z,6.91
2022-11-12T05:25:04.943Z,6.84
2022-11-12T05:27:36.950Z,6.85
2022-11-12T05:30:09.884Z,6.84
2022-11-12T05:32:41.850Z,6.84
2022-11-12T05:35:13.861Z,6.85
2022-11-12T05:37:45.868Z,6.87
2022-11-12T05:40:17.916Z,6.86
2022-11-12T05:42:49.864Z,6.81
2022-11-12T05:45:21.820Z,6.75
2022-11-12T05:47:53.771Z,6.79
2022-11-12T05:50:28.204Z,6.83
2022-11-12T05:53:06.613Z,6.85
2022-11-12T05:55:38.575Z,6.84
2022-11-12T05:58:10.530Z,6.82
2022-11-12T06:00:42.541Z,6.81
2022-11-12T06:03:14.640Z,6.79
2022-11-12T06:05:46.711Z,6.77
2022-11-12T06:08:18.797Z,6.69
2022-11-12T06:10:52.370Z,6.64
2022-11-12T06:13:25.737Z,6.67
2022-11-12T06:15:58.334Z,6.66
2022-11-12T06:18:30.389Z,6.64
2022-11-12T06:21:20.212Z,6.65
2022-11-12T06:23:58.191Z,6.64
2022-11-12T06:26:30.684Z,6.65
2022-11-12T06:29:02.620Z,6.66
2022-11-12T06:31:34.638Z,6.60
2022-11-12T06:34:07.191Z,6.57
2022-11-12T06:36:39.269Z,6.56
2022-11-12T06:39:11.940Z,6.57
2022-11-12T06:41:43.965Z,6.54
2022-11-12T06:44:20.876Z,6.56
2022-11-12T06:46:54.215Z,6.56
2022-11-12T06:49:26.151Z,6.58
2022-11-12T06:51:58.155Z,6.57
2022-11-12T06:54:30.239Z,6.56
2022-11-12T06:57:02.247Z,6.58
2022-11-12T06:59:34.242Z,6.58
2022-11-12T07:02:06.645Z,6.60
2022-11-12T07:04:38.581Z,6.57
2022-11-12T07:07:11.187Z,6.58
2022-11-12T07:09:43.342Z,6.63
2022-11-12T07:12:15.280Z,6.64
2022-11-12T07:14:47.270Z,6.67
2022-11-12T07:17:19.197Z,6.67
2022-11-12T07:19:51.112Z,6.71
2022-11-12T07:22:23.113Z,6.74
2022-11-12T07:24:55.056Z,6.77
2022-11-12T07:27:30.814Z,6.77
2022-11-12T07:30:02.816Z,6.77
2022-11-12T07:32:40.124Z,6.81
2022-11-12T07:35:15.411Z,6.79
2022-11-12T07:37:47.400Z,6.82
2022-11-12T07:40:19.353Z,6.78
2022-11-12T07:42:51.347Z,6.74
2022-11-12T07:45:23.320Z,6.77
2022-11-12T07:47:55.355Z,6.86
2022-11-12T07:50:27.304Z,6.94
2022-11-12T07:52:59.933Z,6.85
2022-11-12T07:55:31.872Z,6.82
2022-11-12T07:58:03.858Z,6.78
2022-11-12T08:00:35.860Z,6.77
2022-11-12T08:03:07.863Z,6.84
2022-11-12T08:05:39.778Z,6.81
2022-11-12T08:08:12.046Z,6.86
2022-11-12T08:10:43.996Z,6.90
2022-11-12T08:13:15.947Z,6.94
2022-11-12T08:15:52.059Z,6.92
2022-11-12T08:18:25.131Z,6.89
2022-11-12T08:21:07.900Z,6.95
2022-11-12T08:23:40.445Z,6.94
2022-11-12T08:26:15.681Z,7.00
2022-11-12T08:28:48.095Z,6.90
2022-11-12T08:31:22.892Z,7.00
2022-11-12T08:33:54.969Z,7.04
2022-11-12T08:36:26.890Z,7.06
2022-11-12T08:38:58.860Z,7.14
2022-11-12T08:41:34.143Z,7.24
2022-11-12T08:44:08.676Z,7.29
2022-11-12T08:46:40.880Z,7.38
2022-11-12T08:49:12.840Z,7.50
2022-11-12T08:51:45.034Z,7.58
2022-11-12T08:54:17.232Z,7.69
2022-11-12T08:56:49.167Z,7.71
2022-11-12T08:59:21.102Z,7.77
2022-11-12T09:01:53.153Z,7.80
2022-11-12T09:04:25.266Z,7.90
2022-11-12T09:06:57.207Z,7.99
2022-11-12T09:09:29.203Z,7.99
2022-11-12T09:12:05.740Z,8.00
2022-11-12T09:14:42.991Z,7.94
2022-11-12T09:17:15.341Z,8.13
2022-11-12T09:19:47.354Z,8.29
2022-11-12T09:22:19.339Z,8.40
2022-11-12T09:24:51.325Z,8.51
2022-11-12T09:27:23.316Z,8.60
2022-11-12T09:29:55.338Z,8.57
2022-11-12T09:32:27.374Z,8.48
2022-11-12T09:34:59.338Z,8.63
2022-11-12T09:37:31.311Z,8.75
2022-11-12T09:40:03.657Z,8.91
2022-11-12T09:42:37.288Z,9.03
2022-11-12T09:45:23.112Z,9.11
2022-11-12T09:48:00.305Z,9.27
2022-11-12T09:50:45.489Z,9.38
2022-11-12T09:53:44.582Z,9.47
2022-11-12T09:56:24.296Z,9.57
2022-11-12T09:58:56.743Z,9.68
2022-11-12T10:01:57.138Z,9.78
2022-11-12T10:05:07.500Z,9.83
2022-11-12T10:07:50.074Z,9.94
2022-11-12T10:10:44.501Z,10.03
2022-11-12T10:13:53.926Z,10.15
2022-11-12T10:16:44.650Z,10.27
2022-11-12T10:19:52.113Z,10.39
2022-11-12T10:22:55.116Z,10.49
2022-11-12T10:25:28.257Z,10.58
2022-11-12T10:28:10.895Z,10.73
2022-11-12T10:30:43.945Z,10.81
2022-11-12T10:33:16.663Z,10.91
2022-11-12T10:35:49.172Z,10.97
2022-11-12T10:38:28.098Z,10.99
2022-11-12T10:41:18.827Z,10.99
2022-11-12T10:43:57.210Z,10.98
2022-11-12T10:46:31.292Z,10.98
2022-11-12T10:49:26.534Z,10.90
2022-11-12T10:51:59.707Z,10.94
2022-11-12T10:54:37.764Z,10.95
2022-11-12T10:57:24.037Z,10.98
2022-11-12T11:00:14.469Z,10.98
2022-11-12T11:02:53.539Z,10.98
2022-11-12T11:05:36.826Z,11.09
2022-11-12T11:08:10.882Z,11.21
2022-11-12T11:10:42.836Z,11.40
2022-11-12T11:13:26.787Z,11.61
2022-11-12T11:16:06.887Z,11.91
2022-11-12T11:18:45.661Z,12.11
2022-11-12T11:21:42.853Z,12.33
2022-11-12T11:24:37.588Z,12.61
2022-11-12T11:27:34.636Z,12.79
2022-11-12T11:30:23.175Z,12.94
2022-11-12T11:33:21.129Z,13.08
2022-11-12T11:36:17.111Z,12.95
2022-11-12T11:39:03.155Z,13.18
2022-11-12T11:41:46.887Z,13.44
2022-11-12T11:45:04.684Z,13.59
2022-11-12T11:48:02.212Z,13.83
2022-11-12T11:50:40.705Z,14.00
2022-11-12T11:53:25.185Z,14.16
2022-11-12T11:56:05.986Z,14.27
2022-11-12T11:58:59.540Z,14.32
2022-11-12T12:01:50.988Z,14.27
2022-11-12T12:04:23.360Z,14.34
2022-11-12T12:07:09.421Z,14.38
2022-11-12T12:10:11.616Z,14.50
2022-11-12T12:13:06.435Z,14.60
2022-11-12T12:16:08.120Z,14.69
2022-11-12T12:19:08.335Z,14.55
2022-11-12T12:21:45.304Z,14.69
2022-11-12T12:24:37.656Z,14.72
2022-11-12T12:27:20.371Z,14.63
2022-11-12T12:30:00.069Z,14.56
2022-11-12T12:32:43.249Z,14.55
2022-11-12T12:35:38.292Z,14.50
2022-11-12T12:38:38.813Z,14.46
2022-11-12T12:41:51.179Z,14.45
2022-11-12T12:44:43.696Z,14.51
2022-11-12T12:47:18.847Z,14.65
2022-11-12T12:49:52.381Z,14.74
2022-11-12T12:52:24.548Z,14.84
2022-11-12T12:54:57.987Z,14.74
2022-11-12T12:57:38.293Z,14.67
2022-11-12T13:00:32.709Z,14.49
2022-11-12T13:03:05.658Z,14.46
2022-11-12T13:05:40.684Z,14.39
2022-11-12T13:08:21.214Z,14.30
2022-11-12T13:10:53.831Z,14.24
2022-11-12T13:13:32.332Z,14.16
2022-11-12T13:16:05.167Z,14.13
2022-11-12T13:18:40.300Z,14.11
2022-11-12T13:21:19.551Z,14.02
2022-11-12T13:24:08.835Z,13.95
2022-11-12T13:26:49.927Z,13.87
2022-11-12T13:29:40.313Z,13.74
2022-11-12T13:32:34.879Z,13.61
2022-11-12T13:35:20.552Z,13.53
2022-11-12T13:38:10.541Z,13.46
2022-11-12T13:40:56.152Z,13.39
2022-11-12T13:43:37.790Z,13.28
2022-11-12T13:46:12.338Z,13.22
2022-11-12T13:48:59.162Z,13.16
2022-11-12T13:51:52.123Z,13.15
2022-11-12T13:54:38.747Z,13.07
2022-11-12T13:57:20.423Z,13.06
2022-11-12T14:00:27.907Z,13.00
2022-11-12T14:03:07.245Z,12.98
2022-11-12T14:05:39.488Z,12.96
2022-11-12T14:08:48.402Z,12.91
2022-11-12T14:11:55.529Z,12.83
2022-11-12T14:14:45.583Z,12.79
2022-11-12T14:17:55.419Z,12.76
2022-11-12T14:20:32.564Z,12.73
2022-11-12T14:23:25.104Z,12.71
2022-11-12T14:25:57.485Z,12.65
2022-11-12T14:28:35.140Z,12.62
2022-11-12T14:31:15.399Z,12.56
2022-11-12T14:33:47.408Z,12.52
2022-11-12T14:36:20.777Z,12.45
2022-11-12T14:38:57.133Z,12.38
2022-11-12T14:41:39.278Z,12.30
2022-11-12T14:44:19.551Z,12.27
2022-11-12T14:46:55.398Z,12.27
2022-11-12T14:49:43.547Z,12.29
2022-11-12T14:52:20.893Z,12.29
2022-11-12T14:54:58.205Z,12.26
2022-11-12T14:57:31.904Z,12.27
2022-11-12T15:00:42.511Z,12.22
2022-11-12T15:03:25.245Z,12.21
2022-11-12T15:06:03.361Z,12.15
2022-11-12T15:08:38.608Z,12.13
2022-11-12T15:11:35.571Z,12.05
2022-11-12T15:14:20.328Z,11.98
2022-11-12T15:16:53.607Z,11.92
2022-11-12T15:19:27.091Z,11.86
2022-11-12T15:22:02.356Z,11.80
2022-11-12T15:24:36.408Z,11.78
2022-11-12T15:27:36.198Z,11.73
2022-11-12T15:30:23.701Z,11.67
2022-11-12T15:33:12.088Z,11.62
2022-11-12T15:36:00.300Z,11.56
2022-11-12T15:38:37.859Z,11.52
2022-11-12T15:41:26.044Z,11.46
2022-11-12T15:43:57.988Z,11.44
2022-11-12T15:46:29.936Z,11.39
2022-11-12T15:49:01.902Z,11.33
2022-11-12T15:51:33.873Z,11.29
2022-11-12T15:54:05.859Z,11.23
2022-11-12T15:56:37.858Z,11.15
2022-11-12T15:59:16.518Z,11.13
2022-11-12T16:01:48.773Z,11.07
2022-11-12T16:04:20.750Z,11.08
2022-11-12T16:06:52.821Z,11.05
2022-11-12T16:09:24.843Z,11.02
2022-11-12T16:11:57.594Z,10.98
2022-11-12T16:14:29.679Z,10.90
2022-11-12T16:17:01.734Z,10.84
2022-11-12T16:19:34.623Z,10.78
2022-11-12T16:22:12.574Z,10.72
2022-11-12T16:24:45.337Z,10.65
2022-11-12T16:27:18.164Z,10.61
2022-11-12T16:29:50.108Z,10.55
2022-11-12T16:32:22.186Z,10.48
2022-11-12T16:34:59.893Z,10.45
2022-11-12T16:37:33.097Z,10.39
2022-11-12T16:40:17.232Z,10.34
2022-11-12T16:42:50.115Z,10.31
2022-11-12T16:45:26.033Z,10.30
2022-11-12T16:47:58.413Z,10.26
2022-11-12T16:50:30.379Z,10.24
2022-11-12T16:53:02.524Z,10.22
2022-11-12T16:55:34.567Z,10.20
2022-11-12T16:58:06.771Z,10.16
2022-11-12T17:00:39.128Z,10.14
2022-11-12T17:03:14.213Z,10.12
2022-11-12T17:05:52.743Z,10.10
2022-11-12T17:08:31.127Z,10.09
2022-11-12T17:11:07.778Z,10.09
2022-11-12T17:13:40.037Z,10.08
2022-11-12T17:16:12.159Z,10.07
2022-11-12T17:18:44.173Z,10.05
2022-11-12T17:21:18.791Z,10.04
2022-11-12T17:23:51.493Z,9.99
2022-11-12T17:26:23.692Z,9.95
2022-11-12T17:29:01.092Z,9.92
2022-11-12T17:31:36.264Z,9.89
2022-11-12T17:34:08.324Z,9.85
2022-11-12T17:36:43.515Z,9.83
2022-11-12T17:39:16.195Z,9.79
2022-11-12T17:41:48.112Z,9.77
2022-11-12T17:44:20.595Z,9.74
2022-11-12T17:46:52.617Z,9.73
2022-11-12T17:49:24.898Z,9.71
2022-11-12T17:51:56.872Z,9.69
2022-11-12T17:54:28.913Z,9.67
2022-11-12T17:57:01.045Z,9.67
2022-11-12T17:59:32.990Z,9.64
2022-11-12T18:02:05.026Z,9.64
2022-11-12T18:04:37.161Z,9.61
2022-11-12T18:07:09.191Z,9.59
2022-11-12T18:09:41.255Z,9.58
2022-11-12T18:12:13.182Z,9.56
2022-11-12T18:14:45.353Z,9.57
2022-11-12T18:17:17.346Z,9.54
2022-11-12T18:19:49.318Z,9.56
2022-11-12T18:22:21.352Z,9.54
2022-11-12T18:24:54.267Z,9.53
2022-11-12T18:27:26.352Z,9.51
2022-11-12T18:29:58.348Z,9.50
2022-11-12T18:32:30.592Z,9.49
2022-11-12T18:35:02.575Z,9.49
2022-11-12T18:37:35.088Z,9.46
2022-11-12T18:40:08.091Z,9.46
2022-11-12T18:42:40.108Z,9.46
2022-11-12T18:45:12.468Z,9.45
2022-11-12T18:47:44.476Z,9.41
2022-11-12T18:50:16.985Z,9.36
2022-11-12T18:52:49.015Z,9.33
2022-11-12T18:55:21.028Z,9.33
2022-11-12T18:57:52.966Z,9.31
2022-11-12T19:00:25.833Z,9.27
2022-11-12T19:02:57.767Z,9.24
2022-11-12T19:05:30.460Z,9.24
2022-11-12T19:08:02.478Z,9.21
2022-11-12T19:10:34.619Z,9.18
2022-11-12T19:13:06.767Z,9.17
2022-11-12T19:15:39.188Z,9.17
2022-11-12T19:18:11.147Z,9.16
2022-11-12T19:20:43.120Z,9.17
2022-11-12T19:23:15.474Z,9.16
2022-11-12T19:25:47.450Z,9.16
2022-11-12T19:28:19.366Z,9.18
2022-11-12T19:30:51.468Z,9.17
2022-11-12T19:33:23.807Z,9.17
2022-11-12T19:35:55.825Z,9.16
2022-11-12T19:38:28.213Z,9.16
2022-11-12T19:41:09.953Z,9.14
2022-11-12T19:43:44.315Z,9.12
2022-11-12T19:46:16.629Z,9.10
2022-11-12T19:48:49.024Z,9.08
2022-11-12T19:51:21.006Z,9.09
2022-11-12T19:53:53.171Z,9.08
2022-11-12T19:56:25.360Z,9.03
2022-11-12T19:58:57.380Z,8.99
2022-11-12T20:01:29.506Z,8.98
2022-11-12T20:04:01.507Z,9.00
2022-11-12T20:06:33.629Z,8.98
2022-11-12T20:09:05.726Z,8.90
2022-11-12T20:11:37.831Z,8.94
2022-11-12T20:14:09.958Z,8.97
2022-11-12T20:16:41.976Z,8.91
2022-11-12T20:19:14.006Z,8.90
2022-11-12T20:21:46.181Z,8.94
2022-11-12T20:24:18.223Z,8.95
2022-11-12T20:26:50.245Z,8.88
2022-11-12T20:29:22.341Z,8.90
2022-11-12T20:31:54.456Z,8.89
2022-11-12T20:34:27.232Z,8.83
2022-11-12T20:36:59.196Z,8.81
2022-11-12T20:39:32.643Z,8.82
2022-11-12T20:42:04.846Z,8.79
2022-11-12T20:44:36.844Z,8.78
2022-11-12T20:47:08.850Z,8.76
2022-11-12T20:49:40.941Z,8.75
2022-11-12T20:52:13.003Z,8.78
2022-11-12T20:54:44.988Z,8.76
2022-11-12T20:57:16.971Z,8.78
2022-11-12T20:59:51.356Z,8.76
2022-11-12T21:02:23.735Z,8.75
2022-11-12T21:04:55.674Z,8.75
2022-11-12T21:07:27.895Z,8.71
2022-11-12T21:09:59.920Z,8.68
2022-11-12T21:12:32.015Z,8.67
2022-11-12T21:15:05.234Z,8.68
2022-11-12T21:17:37.239Z,8.71
2022-11-12T21:20:09.808Z,8.68
2022-11-12T21:22:41.833Z,8.67
2022-11-12T21:25:13.938Z,8.68
2022-11-12T21:27:45.982Z,8.68
2022-11-12T21:30:18.071Z,8.67
2022-11-12T21:32:50.034Z,8.67
2022-11-12T21:35:22.108Z,8.69
2022-11-12T21:37:54.156Z,8.67
2022-11-12T21:40:26.344Z,8.70
2022-11-12T21:43:00.981Z,8.69
2022-11-12T21:45:32.963Z,8.62
2022-11-12T21:48:05.234Z,8.65
2022-11-12T21:50:37.214Z,8.67
2022-11-12T21:53:09.225Z,8.67
2022-11-12T21:55:41.200Z,8.61
2022-11-12T21:58:13.204Z,8.66
2022-11-12T22:00:45.175Z,8.68
2022-11-12T22:03:17.159Z,8.64
2022-11-12T22:05:49.197Z,8.64
2022-11-12T22:08:21.198Z,8.62
2022-11-12T22:10:53.322Z,8.65
2022-11-12T22:13:27.303Z,8.69
2022-11-12T22:16:07.501Z,8.67
2022-11-12T22:18:40.411Z,8.63
2022-11-12T22:21:16.435Z,8.68
2022-11-12T22:23:49.034Z,8.69
2022-11-12T22:26:25.293Z,8.72
2022-11-12T22:28:59.319Z,8.70
2022-11-12T22:31:33.628Z,8.70
2022-11-12T22:34:05.734Z,8.71
2022-11-12T22:36:37.837Z,8.69
2022-11-12T22:39:10.039Z,8.71
2022-11-12T22:41:42.064Z,8.74
2022-11-12T22:44:14.046Z,8.74
2022-11-12T22:46:46.109Z,8.71
2022-11-12T22:49:18.152Z,8.71
2022-11-12T22:51:50.132Z,8.69
2022-11-12T22:54:22.160Z,8.69
2022-11-12T22:56:54.100Z,8.68
2022-11-12T22:59:26.085Z,8.63
2022-11-12T23:01:58.020Z,8.58
2022-11-12T23:04:30.135Z,8.54
2022-11-12T23:07:02.123Z,8.50
2022-11-12T23:09:34.151Z,8.47
2022-11-12T23:12:06.263Z,8.48
2022-11-12T23:14:38.208Z,8.48
2022-11-12T23:17:10.224Z,8.49
2022-11-12T23:19:42.171Z,8.50
2022-11-12T23:22:14.159Z,8.51
2022-11-12T23:24:46.128Z,8.53
2022-11-12T23:27:18.084Z,8.54
2022-11-12T23:29:50.030Z,8.58
2022-11-12T23:32:21.984Z,8.59
2022-11-12T23:34:53.925Z,8.56
2022-11-12T23:37:25.948Z,8.55
2022-11-12T23:39:58.012Z,8.54
2022-11-12T23:42:30.071Z,8.60
2022-11-12T23:45:02.290Z,8.62
2022-11-12T23:47:34.235Z,8.61
2022-11-12T23:50:06.928Z,8.60
2022-11-12T23:52:38.904Z,8.61
2022-11-12T23:55:10.924Z,8.63
2022-11-12T23:57:42.943Z,8.60
